createdAt,value
2022-11-14T00:00:59.296Z,1.90
2022-11-14T00:03:25.768Z,1.25
2022-11-14T00:05:53.287Z,1.59
2022-11-14T00:08:27.408Z,1.96
2022-11-14T00:10:54.151Z,1.86
2022-11-14T00:13:21.045Z,1.58
2022-11-14T00:15:54.343Z,1.61
2022-11-14T00:18:22.545Z,1.77
2022-11-14T00:20:53.182Z,2.08
2022-11-14T00:23:21.147Z,1.56
2022-11-14T00:25:48.313Z,1.64
2022-11-14T00:28:14.817Z,1.19
2022-11-14T00:30:41.322Z,1.18
2022-11-14T00:33:07.740Z,1.24
2022-11-14T00:35:34.204Z,1.33
2022-11-14T00:38:00.682Z,1.31
2022-11-14T00:40:27.162Z,1.27
2022-11-14T00:42:53.682Z,1.44
2022-11-14T00:45:20.295Z,1.59
2022-11-14T00:47:46.726Z,1.39
2022-11-14T00:50:13.170Z,1.98
2022-11-14T00:52:39.571Z,1.52
2022-11-14T00:55:06.761Z,1.36
2022-11-14T00:57:33.185Z,1.58
2022-11-14T00:59:59.637Z,1.40
2022-11-14T01:02:26.063Z,1.55
2022-11-14T01:04:52.732Z,1.48
2022-11-14T01:07:19.198Z,1.67
2022-11-14T01:09:45.786Z,1.69
2022-11-14T01:12:12.285Z,1.32
2022-11-14T01:14:40.805Z,1.52
2022-11-14T01:17:07.576Z,1.66
2022-11-14T01:19:34.206Z,1.13
2022-11-14T01:22:05.920Z,1.64
2022-11-14T01:24:33.916Z,1.62
2022-11-14T01:27:01.024Z,1.76
2022-11-14T01:29:28.088Z,1.21
2022-11-14T01:31:54.704Z,1.55
2022-11-14T01:34:21.599Z,1.39
2022-11-14T01:36:48.063Z,1.89
2022-11-14T01:39:14.584Z,1.88
2022-11-14T01:41:41.077Z,1.51
2022-11-14T01:44:37.882Z,1.34
2022-11-14T01:47:05.116Z,1.49
2022-11-14T01:49:39.681Z,1.78
2022-11-14T01:52:16.029Z,0.75
2022-11-14T01:54:46.330Z,1.60
2022-11-14T01:57:18.342Z,1.19
2022-11-14T01:59:51.888Z,0.96
2022-11-14T02:02:21.027Z,1.71
2022-11-14T02:04:53.742Z,1.99
2022-11-14T02:07:20.433Z,1.73
2022-11-14T02:09:48.801Z,1.40
2022-11-14T02:12:17.933Z,0.74
2022-11-14T02:14:47.514Z,1.75
2022-11-14T02:17:31.921Z,1.09
2022-11-14T02:20:11.246Z,1.94
2022-11-14T02:22:39.391Z,1.99
2022-11-14T02:25:07.071Z,1.83
2022-11-14T02:27:34.862Z,1.97
2022-11-14T02:30:11.314Z,1.75
2022-11-14T02:33:08.678Z,1.27
2022-11-14T02:35:24.311Z,1.36
2022-11-14T02:37:50.787Z,1.61
2022-11-14T02:40:17.394Z,1.42
2022-11-14T02:42:43.816Z,1.52
2022-11-14T02:45:12.106Z,1.79
2022-11-14T02:47:38.622Z,2.05
2022-11-14T02:50:05.533Z,1.76
2022-11-14T02:52:31.960Z,1.70
2022-11-14T02:54:58.450Z,1.08
2022-11-14T02:57:24.877Z,2.15
2022-11-14T02:59:52.317Z,1.74
2022-11-14T03:02:18.793Z,1.31
2022-11-14T03:04:45.292Z,1.07
2022-11-14T03:07:11.863Z,2.07
2022-11-14T03:09:38.368Z,2.03
2022-11-14T03:12:05.010Z,2.06
2022-11-14T03:14:31.990Z,1.75
2022-11-14T03:16:58.442Z,2.22
2022-11-14T03:19:24.930Z,2.00
2022-11-14T03:21:51.361Z,1.77
2022-11-14T03:24:17.883Z,2.02
2022-11-14T03:26:44.364Z,1.50
2022-11-14T03:29:10.818Z,1.85
2022-11-14T03:31:37.258Z,1.79
2022-11-14T03:34:03.772Z,2.47
2022-11-14T03:36:30.309Z,2.43
2022-11-14T03:39:07.133Z,1.92
2022-11-14T03:41:33.580Z,2.35
2022-11-14T03:44:00.064Z,1.72
2022-11-14T03:46:27.021Z,1.64
2022-11-14T03:48:53.511Z,2.18
2022-11-14T03:51:23.944Z,2.29
2022-11-14T03:53:50.364Z,2.70
2022-11-14T03:56:16.867Z,1.68
2022-11-14T03:58:43.322Z,1.56
2022-11-14T04:01:09.893Z,1.67
2022-11-14T04:03:36.406Z,1.95
2022-11-14T04:06:03.170Z,2.19
2022-11-14T04:08:30.075Z,2.22
2022-11-14T04:10:56.808Z,1.67
2022-11-14T04:13:24.383Z,1.93
2022-11-14T04:15:55.478Z,2.42
2022-11-14T04:18:22.242Z,1.85
2022-11-14T04:20:48.678Z,2.54
2022-11-14T04:23:15.120Z,2.14
2022-11-14T04:25:44.010Z,1.58
2022-11-14T04:28:10.434Z,1.30
2022-11-14T04:30:37.255Z,2.64
2022-11-14T04:33:03.964Z,1.32
2022-11-14T04:35:30.411Z,1.45
2022-11-14T04:37:56.828Z,2.44
2022-11-14T04:40:23.477Z,2.23
2022-11-14T04:42:49.919Z,2.11
2022-11-14T04:45:16.468Z,1.71
2022-11-14T04:47:43.103Z,2.56
2022-11-14T04:50:10.553Z,3.02
2022-11-14T04:52:37.175Z,2.09
2022-11-14T04:55:03.838Z,2.26
2022-11-14T04:57:30.310Z,1.70
2022-11-14T04:59:56.742Z,1.96
2022-11-14T05:02:23.275Z,2.09
2022-11-14T05:04:49.809Z,1.69
2022-11-14T05:07:18.426Z,2.25
2022-11-14T05:09:44.908Z,2.26
2022-11-14T05:12:11.354Z,2.48
2022-11-14T05:14:37.852Z,2.24
2022-11-14T05:17:04.279Z,1.62
2022-11-14T05:19:30.817Z,1.40
2022-11-14T05:21:57.485Z,1.72
2022-11-14T05:24:24.349Z,2.00
2022-11-14T05:26:50.813Z,2.11
2022-11-14T05:29:17.299Z,2.10
2022-11-14T05:31:44.118Z,1.77
2022-11-14T05:34:10.550Z,1.78
2022-11-14T05:36:37.005Z,1.34
2022-11-14T05:39:03.485Z,1.12
2022-11-14T05:41:29.909Z,1.24
2022-11-14T05:43:56.348Z,1.17
2022-11-14T05:46:22.848Z,1.25
2022-11-14T05:48:49.364Z,1.01
2022-11-14T05:51:15.881Z,1.91
2022-11-14T05:53:42.522Z,1.30
2022-11-14T05:56:12.118Z,0.98
2022-11-14T05:58:39.064Z,1.81
2022-11-14T06:01:14.437Z,1.37
2022-11-14T06:03:43.739Z,1.11
2022-11-14T06:06:13.140Z,1.37
2022-11-14T06:08:40.637Z,1.88
2022-11-14T06:11:16.361Z,1.45
2022-11-14T06:13:43.705Z,1.62
2022-11-14T06:16:20.693Z,1.55
2022-11-14T06:18:47.606Z,1.43
2022-11-14T06:21:16.682Z,0.89
2022-11-14T06:23:43.394Z,0.90
2022-11-14T06:26:31.264Z,1.78
2022-11-14T06:28:58.991Z,1.29
2022-11-14T06:31:26.482Z,1.59
2022-11-14T06:33:53.444Z,1.70
2022-11-14T06:36:20.453Z,1.89
2022-11-14T06:38:46.948Z,2.04
2022-11-14T06:41:13.288Z,2.18
2022-11-14T06:43:41.693Z,2.29
2022-11-14T06:46:10.025Z,2.08
2022-11-14T06:49:09.684Z,2.25
2022-11-14T06:51:44.475Z,2.04
2022-11-14T06:54:16.077Z,2.20
2022-11-14T06:56:52.726Z,2.04
2022-11-14T06:59:23.127Z,2.05
2022-11-14T07:01:49.529Z,1.99
2022-11-14T07:04:16.068Z,2.02
2022-11-14T07:06:42.496Z,2.17
2022-11-14T07:09:10.973Z,2.14
2022-11-14T07:11:37.770Z,2.32
2022-11-14T07:14:30.933Z,2.66
2022-11-14T07:16:58.072Z,2.79
2022-11-14T07:19:24.484Z,2.68
2022-11-14T07:21:57.102Z,2.76
2022-11-14T07:24:23.526Z,2.96
2022-11-14T07:26:49.937Z,3.01
2022-11-14T07:29:19.384Z,3.05
2022-11-14T07:31:45.834Z,3.37
2022-11-14T07:34:25.646Z,4.03
2022-11-14T07:36:52.069Z,3.85
2022-11-14T07:39:23.646Z,3.82
2022-11-14T07:41:50.060Z,4.07
2022-11-14T07:44:27.689Z,4.25
2022-11-14T07:46:54.088Z,4.30
2022-11-14T07:49:20.527Z,4.72
2022-11-14T07:51:46.925Z,4.30
2022-11-14T07:54:13.448Z,4.20
2022-11-14T07:56:39.918Z,4.33
2022-11-14T07:59:06.453Z,4.30
2022-11-14T08:01:32.984Z,4.03
2022-11-14T08:03:59.494Z,3.97
2022-11-14T08:06:26.200Z,4.14
2022-11-14T08:08:52.612Z,4.02
2022-11-14T08:11:38.994Z,4.00
2022-11-14T08:14:05.649Z,3.91
2022-11-14T08:16:32.169Z,3.80
2022-11-14T08:18:58.633Z,3.89
2022-11-14T08:21:25.044Z,3.83
2022-11-14T08:23:51.481Z,3.94
2022-11-14T08:26:17.884Z,3.96
2022-11-14T08:28:44.295Z,3.62
2022-11-14T08:31:18.812Z,3.93
2022-11-14T08:33:45.254Z,4.24
2022-11-14T08:36:11.788Z,4.23
2022-11-14T08:38:57.484Z,4.40
2022-11-14T08:41:27.028Z,4.51
2022-11-14T08:43:53.533Z,4.80
2022-11-14T08:46:33.341Z,4.79
2022-11-14T08:48:59.748Z,4.92
2022-11-14T08:51:26.176Z,5.20
2022-11-14T08:53:52.653Z,5.34
2022-11-14T08:56:19.112Z,5.52
2022-11-14T08:58:51.640Z,5.77
2022-11-14T09:01:18.121Z,5.83
2022-11-14T09:03:44.747Z,5.92
2022-11-14T09:06:11.298Z,6.07
2022-11-14T09:08:37.709Z,6.26
2022-11-14T09:11:09.284Z,6.37
2022-11-14T09:13:42.253Z,6.57
2022-11-14T09:16:08.635Z,6.43
2022-11-14T09:18:35.340Z,6.95
2022-11-14T09:21:03.570Z,6.99
2022-11-14T09:23:30.668Z,6.97
2022-11-14T09:25:57.438Z,7.21
2022-11-14T09:28:24.338Z,7.41
2022-11-14T09:30:50.751Z,7.53
2022-11-14T09:33:17.154Z,7.46
2022-11-14T09:35:43.602Z,8.00
2022-11-14T09:38:16.966Z,8.14
2022-11-14T09:40:59.519Z,8.30
2022-11-14T09:43:58.099Z,8.50
2022-11-14T09:46:31.112Z,8.61
2022-11-14T09:48:57.912Z,8.95
2022-11-14T09:51:50.217Z,9.23
2022-11-14T09:54:22.894Z,9.24
2022-11-14T09:56:49.734Z,9.34
2022-11-14T09:59:16.366Z,9.60
2022-11-14T10:01:57.396Z,9.77
2022-11-14T10:04:32.782Z,10.11
2022-11-14T10:07:17.504Z,10.31
2022-11-14T10:09:56.013Z,10.66
2022-11-14T10:12:40.573Z,10.60
2022-11-14T10:15:07.024Z,10.91
2022-11-14T10:17:57.062Z,10.86
2022-11-14T10:20:29.381Z,11.09
2022-11-14T10:23:10.905Z,11.31
2022-11-14T10:25:54.507Z,11.18
2022-11-14T10:29:00.124Z,11.16
2022-11-14T10:31:42.141Z,11.02
2022-11-14T10:34:14.624Z,10.89
2022-11-14T10:36:56.111Z,11.09
2022-11-14T10:39:29.288Z,11.12
2022-11-14T10:42:06.242Z,11.02
2022-11-14T10:44:42.246Z,10.96
2022-11-14T10:47:16.264Z,11.11
2022-11-14T10:49:46.768Z,11.27
2022-11-14T10:52:17.154Z,11.36
2022-11-14T10:54:50.211Z,11.48
2022-11-14T10:57:20.022Z,11.84
2022-11-14T11:00:02.519Z,12.08
2022-11-14T11:02:48.139Z,12.22
2022-11-14T11:05:17.086Z,12.44
2022-11-14T11:08:21.434Z,12.61
2022-11-14T11:11:17.312Z,12.27
2022-11-14T11:13:58.529Z,12.02
2022-11-14T11:16:26.897Z,12.23
2022-11-14T11:18:54.449Z,12.04
2022-11-14T11:21:23.324Z,12.26
2022-11-14T11:24:03.211Z,12.08
2022-11-14T11:26:31.970Z,12.36
2022-11-14T11:29:16.187Z,12.37
2022-11-14T11:32:03.047Z,12.27
2022-11-14T11:34:32.991Z,12.48
2022-11-14T11:37:20.711Z,12.61
2022-11-14T11:39:54.973Z,12.61
2022-11-14T11:45:34.658Z,12.54
2022-11-14T11:48:19.648Z,12.72
2022-11-14T11:50:47.086Z,12.85
2022-11-14T11:53:34.339Z,12.56
2022-11-14T11:56:14.589Z,12.81
2022-11-14T11:59:06.848Z,12.79
2022-11-14T12:01:33.334Z,12.50
2022-11-14T12:04:00.739Z,12.18
2022-11-14T12:06:32.178Z,12.34
2022-11-14T12:09:29.503Z,12.35
2022-11-14T12:12:14.443Z,12.47
2022-11-14T12:14:59.048Z,12.33
2022-11-14T12:17:30.518Z,12.41
2022-11-14T12:20:06.035Z,12.42
2022-11-14T12:23:11.080Z,12.59
2022-11-14T12:26:03.790Z,12.88
2022-11-14T12:28:44.398Z,12.88
2022-11-14T12:31:16.955Z,12.82
2022-11-14T12:34:05.457Z,12.94
2022-11-14T12:36:34.628Z,12.97
2022-11-14T12:39:02.176Z,12.70
2022-11-14T12:41:32.619Z,12.87
2022-11-14T12:44:17.438Z,13.08
2022-11-14T12:47:13.713Z,12.81
2022-11-14T12:49:49.639Z,13.04
2022-11-14T12:52:41.047Z,13.14
2022-11-14T12:55:30.052Z,13.30
2022-11-14T12:58:23.509Z,13.25
2022-11-14T13:00:49.909Z,13.14
2022-11-14T13:03:31.818Z,13.18
2022-11-14T13:06:09.023Z,12.78
2022-11-14T13:08:53.370Z,12.97
2022-11-14T13:11:50.709Z,12.77
2022-11-14T13:14:41.612Z,12.72
2022-11-14T13:17:43.412Z,12.40
2022-11-14T13:20:40.345Z,12.28
2022-11-14T13:23:25.433Z,12.32
2022-11-14T13:26:10.313Z,12.48
2022-11-14T13:28:53.495Z,12.15
2022-11-14T13:31:44.365Z,12.15
2022-11-14T13:34:29.080Z,12.39
2022-11-14T13:37:14.118Z,12.39
2022-11-14T13:39:52.047Z,12.49
2022-11-14T13:42:18.424Z,12.27
2022-11-14T13:45:17.475Z,12.38
2022-11-14T13:48:17.634Z,12.22
2022-11-14T13:50:49.797Z,12.23
2022-11-14T13:53:24.849Z,12.36
2022-11-14T13:55:55.664Z,12.31
2022-11-14T13:58:37.075Z,12.32
2022-11-14T14:01:31.776Z,12.43
2022-11-14T14:04:29.732Z,12.33
2022-11-14T14:07:23.755Z,12.38
2022-11-14T14:10:29.275Z,12.41
2022-11-14T14:13:10.758Z,12.23
2022-11-14T14:15:49.092Z,12.33
2022-11-14T14:18:34.173Z,12.32
2022-11-14T14:21:19.712Z,12.16
2022-11-14T14:23:57.500Z,12.26
2022-11-14T14:26:55.713Z,12.20
2022-11-14T14:29:37.537Z,12.25
2022-11-14T14:32:15.716Z,12.32
2022-11-14T14:34:42.497Z,12.18
2022-11-14T14:37:24.283Z,12.14
2022-11-14T14:40:01.886Z,12.17
2022-11-14T14:42:38.386Z,12.04
2022-11-14T14:45:05.412Z,12.24
2022-11-14T14:47:31.770Z,12.23
2022-11-14T14:50:21.703Z,12.64
2022-11-14T14:53:06.272Z,12.32
2022-11-14T14:55:35.009Z,12.27
2022-11-14T14:58:34.105Z,12.29
2022-11-14T15:01:03.860Z,12.11
2022-11-14T15:03:37.884Z,11.81
2022-11-14T15:06:17.759Z,12.22
2022-11-14T15:08:45.930Z,11.68
2022-11-14T15:11:15.253Z,11.78
2022-11-14T15:13:42.688Z,11.64
2022-11-14T15:16:16.916Z,11.24
2022-11-14T15:18:44.432Z,11.12
2022-11-14T15:21:23.138Z,10.84
2022-11-14T15:24:18.750Z,10.85
2022-11-14T15:26:52.104Z,10.76
2022-11-14T15:29:19.723Z,10.51
2022-11-14T15:31:52.898Z,10.45
2022-11-14T15:34:26.344Z,9.88
2022-11-14T15:37:19.318Z,9.81
2022-11-14T15:39:47.463Z,9.87
2022-11-14T15:42:28.203Z,9.37
2022-11-14T15:44:55.568Z,8.58
2022-11-14T15:47:28.566Z,8.61
2022-11-14T15:50:25.901Z,8.57
2022-11-14T15:53:23.396Z,8.55
2022-11-14T15:55:49.834Z,8.40
2022-11-14T15:58:32.857Z,8.18
2022-11-14T16:01:03.758Z,8.17
2022-11-14T16:03:30.396Z,8.28
2022-11-14T16:05:57.007Z,7.75
2022-11-14T16:08:23.445Z,7.62
2022-11-14T16:10:49.855Z,7.60
2022-11-14T16:13:16.307Z,7.59
2022-11-14T16:15:42.809Z,7.64
2022-11-14T16:18:12.123Z,7.43
2022-11-14T16:20:39.659Z,7.09
2022-11-14T16:23:13.942Z,7.32
2022-11-14T16:25:40.432Z,6.92
2022-11-14T16:28:06.898Z,6.78
2022-11-14T16:30:33.348Z,6.83
2022-11-14T16:32:59.841Z,6.86
2022-11-14T16:35:27.602Z,7.09
2022-11-14T16:37:57.055Z,6.81
2022-11-14T16:40:27.807Z,6.75
2022-11-14T16:42:55.872Z,6.49
2022-11-14T16:45:22.779Z,6.77
2022-11-14T16:47:49.912Z,6.80
2022-11-14T16:50:17.283Z,6.46
2022-11-14T16:52:43.739Z,6.26
2022-11-14T16:55:11.704Z,6.48
2022-11-14T16:57:39.077Z,6.16
2022-11-14T17:00:08.650Z,6.30
2022-11-14T17:02:35.064Z,6.13
2022-11-14T17:05:01.493Z,5.82
2022-11-14T17:07:32.600Z,5.68
2022-11-14T17:10:02.511Z,5.75
2022-11-14T17:12:28.985Z,5.69
2022-11-14T17:14:55.447Z,5.89
2022-11-14T17:17:21.925Z,5.63
2022-11-14T17:19:48.619Z,5.36
2022-11-14T17:22:16.470Z,5.63
2022-11-14T17:24:47.065Z,5.52
2022-11-14T17:27:13.518Z,5.52
2022-11-14T17:29:40.038Z,5.34
2022-11-14T17:32:06.729Z,5.25
2022-11-14T17:34:33.188Z,5.24
2022-11-14T17:36:59.610Z,5.11
2022-11-14T17:39:26.304Z,4.67
2022-11-14T17:41:53.171Z,5.19
2022-11-14T17:44:19.639Z,5.09
2022-11-14T17:46:47.346Z,5.02
2022-11-14T17:49:13.761Z,4.95
2022-11-14T17:51:40.190Z,4.61
2022-11-14T17:54:06.696Z,4.91
2022-11-14T17:56:33.222Z,4.51
2022-11-14T17:58:59.645Z,4.43
2022-11-14T18:01:26.329Z,4.12
2022-11-14T18:03:53.005Z,4.25
2022-11-14T18:06:21.347Z,4.15
2022-11-14T18:08:48.538Z,4.33
2022-11-14T18:11:17.206Z,4.20
2022-11-14T18:13:44.098Z,4.14
2022-11-14T18:16:16.682Z,4.20
2022-11-14T18:18:43.372Z,4.29
2022-11-14T18:21:14.286Z,4.40
2022-11-14T18:24:02.479Z,4.38
2022-11-14T18:26:29.209Z,4.13
2022-11-14T18:29:03.198Z,4.30
2022-11-14T18:31:30.210Z,4.14
2022-11-14T18:34:02.941Z,4.08
2022-11-14T18:36:29.473Z,4.16
2022-11-14T18:38:56.985Z,4.30
2022-11-14T18:41:24.496Z,4.15
2022-11-14T18:43:55.435Z,4.31
2022-11-14T18:46:24.405Z,4.29
2022-11-14T18:48:57.103Z,4.18
2022-11-14T18:51:27.405Z,4.12
2022-11-14T18:54:10.249Z,4.13
2022-11-14T18:56:36.735Z,3.90
2022-11-14T18:59:03.165Z,3.95
2022-11-14T19:01:32.058Z,3.74
2022-11-14T19:04:04.056Z,3.62
2022-11-14T19:06:36.508Z,3.84
2022-11-14T19:09:11.325Z,3.62
2022-11-14T19:11:57.399Z,3.74
2022-11-14T19:14:24.886Z,3.76
2022-11-14T19:16:51.325Z,3.83
2022-11-14T19:19:18.931Z,4.00
2022-11-14T19:21:50.339Z,4.07
2022-11-14T19:24:17.423Z,3.92
2022-11-14T19:26:44.470Z,4.15
2022-11-14T19:29:13.324Z,4.08
2022-11-14T19:32:03.880Z,4.44
2022-11-14T19:34:32.416Z,4.25
2022-11-14T19:37:00.672Z,4.24
2022-11-14T19:39:35.697Z,4.42
2022-11-14T19:42:02.138Z,4.39
2022-11-14T19:44:28.560Z,4.51
2022-11-14T19:46:55.047Z,4.70
2022-11-14T19:49:21.630Z,4.60
2022-11-14T19:51:48.836Z,4.75
2022-11-14T19:54:15.620Z,4.79
2022-11-14T19:56:42.071Z,4.82
2022-11-14T19:59:28.736Z,4.69
2022-11-14T20:01:55.696Z,4.71
2022-11-14T20:04:24.225Z,4.76
2022-11-14T20:06:52.892Z,4.71
2022-11-14T20:09:32.801Z,4.65
2022-11-14T20:11:59.296Z,4.66
2022-11-14T20:14:25.742Z,4.37
2022-11-14T20:16:52.363Z,4.24
2022-11-14T20:19:20.911Z,4.24
2022-11-14T20:21:48.839Z,4.30
2022-11-14T20:24:21.306Z,4.17
2022-11-14T20:26:48.984Z,4.06
2022-11-14T20:29:15.392Z,3.92
2022-11-14T20:31:41.982Z,3.90
2022-11-14T20:34:10.466Z,3.78
2022-11-14T20:37:08.845Z,3.70
2022-11-14T20:39:23.326Z,3.55
2022-11-14T20:41:50.062Z,3.59
2022-11-14T20:44:18.828Z,3.66
2022-11-14T20:46:51.374Z,3.91
2022-11-14T20:49:22.046Z,3.64
2022-11-14T20:51:49.180Z,3.50
2022-11-14T20:54:16.363Z,3.24
2022-11-14T20:56:42.787Z,3.03
2022-11-14T20:59:14.394Z,3.19
2022-11-14T21:01:43.904Z,3.07
2022-11-14T21:04:10.780Z,3.02
2022-11-14T21:06:56.814Z,3.18
2022-11-14T21:09:23.294Z,3.10
2022-11-14T21:11:49.762Z,2.99
2022-11-14T21:14:16.294Z,2.93
2022-11-14T21:16:42.810Z,3.10
2022-11-14T21:19:12.248Z,3.02
2022-11-14T21:21:38.950Z,3.16
2022-11-14T21:24:06.192Z,3.18
2022-11-14T21:26:39.206Z,3.33
2022-11-14T21:29:10.051Z,3.34
2022-11-14T21:31:39.315Z,3.40
2022-11-14T21:34:16.721Z,3.32
2022-11-14T21:36:45.394Z,3.19
2022-11-14T21:39:16.731Z,3.22
2022-11-14T21:41:45.202Z,3.22
2022-11-14T21:44:14.448Z,3.34
2022-11-14T21:46:41.366Z,3.36
2022-11-14T21:49:14.416Z,3.25
2022-11-14T21:51:41.024Z,3.30
2022-11-14T21:54:08.520Z,3.11
2022-11-14T21:56:37.029Z,3.40
2022-11-14T21:59:15.578Z,3.19
2022-11-14T22:02:06.657Z,3.55
2022-11-14T22:04:39.510Z,3.29
2022-11-14T22:07:08.098Z,3.27
2022-11-14T22:09:45.092Z,3.06
2022-11-14T22:12:12.003Z,3.25
2022-11-14T22:14:38.466Z,3.16
2022-11-14T22:17:04.898Z,3.11
2022-11-14T22:19:31.339Z,3.10
2022-11-14T22:21:57.903Z,2.90
2022-11-14T22:24:26.382Z,3.09
2022-11-14T22:26:52.831Z,3.13
2022-11-14T22:29:19.326Z,3.10
2022-11-14T22:31:45.807Z,2.96
2022-11-14T22:34:12.375Z,2.93
2022-11-14T22:36:39.024Z,2.96
2022-11-14T22:39:05.608Z,3.01
2022-11-14T22:41:33.712Z,3.00
2022-11-14T22:44:01.315Z,2.71
2022-11-14T22:46:28.608Z,2.88
2022-11-14T22:48:55.644Z,2.85
2022-11-14T22:51:24.291Z,2.88
2022-11-14T22:53:52.936Z,2.87
2022-11-14T22:56:28.179Z,2.75
2022-11-14T22:58:55.294Z,2.68
2022-11-14T23:01:29.570Z,2.70
2022-11-14T23:03:58.613Z,2.70
2022-11-14T23:06:25.935Z,2.61
2022-11-14T23:08:53.357Z,2.63
2022-11-14T23:11:25.673Z,2.75
2022-11-14T23:13:54.212Z,2.64
2022-11-14T23:16:29.184Z,2.67
2022-11-14T23:18:57.586Z,2.74
2022-11-14T23:21:33.371Z,2.35
2022-11-14T23:24:05.227Z,2.71
2022-11-14T23:26:32.079Z,2.54
2022-11-14T23:28:59.199Z,2.58
2022-11-14T23:31:25.760Z,2.43
2022-11-14T23:33:54.570Z,2.31
2022-11-14T23:36:21.361Z,2.18
2022-11-14T23:38:48.140Z,2.10
2022-11-14T23:41:17.929Z,2.20
2022-11-14T23:43:48.626Z,2.24
2022-11-14T23:46:17.125Z,2.26
2022-11-14T23:48:43.692Z,2.15
2022-11-14T23:51:10.186Z,2.23
2022-11-14T23:53:36.708Z,2.20
2022-11-14T23:56:03.489Z,2.18
2022-11-14T23:58:30.437Z,2.17
